FJL734 OPIS-OPLA
Flight info
| Callsign | FJL734 |
|---|---|
| Flight time | N/A |
| Altitude | 29000 |
| Route | INDEK T400 AKBER |
| Aircraft | A320/M-VGDW/C |
Departure
| Time | 2026-05-06 07:17 |
|---|---|
| Airport | Islamabad International Airport (OPIS) |
Arrival
| Time | N/A |
|---|---|
| Airport | Allama Iqbal International Airport (OPLA) |
| Time | Latitude | Longitude | Altitude | Speed | Heading |
|---|---|---|---|---|---|
| 2026-05-06 07:07 | 33.55600 | 72.83155 | 1770 ft | 0 kts | 120° |
| 2026-05-06 07:09 | 33.55607 | 72.83140 | 1770 ft | 2 kts | 120° |
| 2026-05-06 07:09 | 33.55616 | 72.83122 | 1771 ft | 2 kts | 120° |
| 2026-05-06 07:09 | 33.55624 | 72.83105 | 1770 ft | 2 kts | 120° |
| 2026-05-06 07:09 | 33.55634 | 72.83087 | 1771 ft | 3 kts | 144° |
| 2026-05-06 07:10 | 33.55650 | 72.83078 | 1772 ft | 3 kts | 181° |
| 2026-05-06 07:10 | 33.55663 | 72.83080 | 1771 ft | 3 kts | 186° |
| 2026-05-06 07:10 | 33.55681 | 72.83079 | 1772 ft | 3 kts | 187° |
| 2026-05-06 07:10 | 33.55687 | 72.83081 | 1773 ft | 0 kts | 192° |
| 2026-05-06 07:12 | 33.55672 | 72.83076 | 1771 ft | 4 kts | 199° |
| 2026-05-06 07:13 | 33.55635 | 72.83035 | 1770 ft | 11 kts | 235° |
| 2026-05-06 07:13 | 33.55581 | 72.82942 | 1771 ft | 17 kts | 235° |
| 2026-05-06 07:13 | 33.55506 | 72.82814 | 1772 ft | 19 kts | 235° |
| 2026-05-06 07:13 | 33.55429 | 72.82679 | 1773 ft | 20 kts | 236° |
| 2026-05-06 07:14 | 33.55323 | 72.82614 | 1772 ft | 17 kts | 191° |
| 2026-05-06 07:14 | 33.55210 | 72.82567 | 1768 ft | 17 kts | 244° |
| 2026-05-06 07:14 | 33.55219 | 72.82431 | 1768 ft | 19 kts | 281° |
| 2026-05-06 07:14 | 33.55244 | 72.82268 | 1769 ft | 21 kts | 281° |
| 2026-05-06 07:15 | 33.55273 | 72.82076 | 1768 ft | 25 kts | 279° |
| 2026-05-06 07:15 | 33.55306 | 72.81871 | 1770 ft | 25 kts | 278° |
| 2026-05-06 07:15 | 33.55330 | 72.81702 | 1767 ft | 16 kts | 281° |
| 2026-05-06 07:15 | 33.55330 | 72.81648 | 1767 ft | 6 kts | 247° |
| 2026-05-06 07:16 | 33.55285 | 72.81621 | 1768 ft | 10 kts | 187° |
| 2026-05-06 07:16 | 33.55194 | 72.81601 | 1750 ft | 17 kts | 193° |
| 2026-05-06 07:16 | 33.55143 | 72.81654 | 1755 ft | 5 kts | 99° |
| 2026-05-06 07:16 | 33.55139 | 72.81683 | 1750 ft | 23 kts | 99° |
| 2026-05-06 07:17 | 33.55056 | 72.82210 | 1760 ft | 103 kts | 100° |
| 2026-05-06 07:17 | 33.54874 | 72.83325 | 1783 ft | 164 kts | 102° |
| 2026-05-06 07:17 | 33.54665 | 72.84714 | 2405 ft | 175 kts | 99° |
| 2026-05-06 07:17 | 33.54482 | 72.86211 | 3083 ft | 188 kts | 98° |
| 2026-05-06 07:18 | 33.54274 | 72.87786 | 3872 ft | 196 kts | 99° |
| 2026-05-06 07:18 | 33.54059 | 72.89433 | 4701 ft | 203 kts | 99° |
| 2026-05-06 07:18 | 33.53777 | 72.91131 | 5447 ft | 216 kts | 113° |
| 2026-05-06 07:18 | 33.53579 | 72.91601 | 5633 ft | 219 kts | 127° |